CDG8010 RKSI-ZSJN
Flight info
| Callsign | CDG8010 |
|---|---|
| Flight time | 1h 43m |
| Altitude | 30100 |
| Route | BINIL Y697 AGAVO/K0863S0920 A591 IKEKA W4 BASOV |
| Aircraft | B738/M-SDE2E3FGHIRWXY/LB1 |
Departure
| Time | 2026-04-20 04:50 |
|---|---|
| Airport | Incheon International Airport (RKSI) |
Arrival
| Time | 2026-04-20 06:33 |
|---|---|
| Airport | Jinan Yaoqiang International Airport (ZSJN) |
| Time | Latitude | Longitude | Altitude | Speed | Heading |
|---|---|---|---|---|---|
| 2026-04-20 04:18 | 37.45137 | 126.44577 | 28 ft | 0 kts | 173° |
| 2026-04-20 04:36 | 37.45151 | 126.44575 | 28 ft | 2 kts | 172° |
| 2026-04-20 04:36 | 37.45166 | 126.44572 | 28 ft | 2 kts | 173° |
| 2026-04-20 04:36 | 37.45181 | 126.44570 | 28 ft | 2 kts | 172° |
| 2026-04-20 04:37 | 37.45196 | 126.44568 | 28 ft | 2 kts | 173° |
| 2026-04-20 04:37 | 37.45205 | 126.44567 | 28 ft | 2 kts | 170° |
| 2026-04-20 04:37 | 37.45218 | 126.44558 | 28 ft | 2 kts | 131° |
| 2026-04-20 04:37 | 37.45226 | 126.44542 | 28 ft | 2 kts | 102° |
| 2026-04-20 04:38 | 37.45226 | 126.44523 | 28 ft | 2 kts | 72° |
| 2026-04-20 04:38 | 37.45223 | 126.44514 | 28 ft | 1 kts | 54° |
| 2026-04-20 04:38 | 37.45220 | 126.44508 | 28 ft | 0 kts | 57° |
| 2026-04-20 04:40 | 37.45220 | 126.44509 | 28 ft | 0 kts | 57° |
| 2026-04-20 04:40 | 37.45228 | 126.44526 | 28 ft | 4 kts | 59° |
| 2026-04-20 04:40 | 37.45257 | 126.44559 | 28 ft | 7 kts | 19° |
| 2026-04-20 04:40 | 37.45304 | 126.44540 | 28 ft | 7 kts | 305° |
| 2026-04-20 04:41 | 37.45301 | 126.44473 | 28 ft | 9 kts | 238° |
| 2026-04-20 04:41 | 37.45262 | 126.44402 | 28 ft | 11 kts | 234° |
| 2026-04-20 04:41 | 37.45210 | 126.44312 | 28 ft | 14 kts | 234° |
| 2026-04-20 04:41 | 37.45154 | 126.44212 | 28 ft | 13 kts | 233° |
| 2026-04-20 04:42 | 37.45100 | 126.44116 | 28 ft | 13 kts | 234° |
| 2026-04-20 04:42 | 37.45042 | 126.44015 | 28 ft | 14 kts | 234° |
| 2026-04-20 04:42 | 37.44987 | 126.43923 | 28 ft | 9 kts | 246° |
| 2026-04-20 04:42 | 37.44999 | 126.43847 | 28 ft | 9 kts | 316° |
| 2026-04-20 04:43 | 37.45052 | 126.43800 | 28 ft | 11 kts | 324° |
| 2026-04-20 04:43 | 37.45130 | 126.43728 | 28 ft | 16 kts | 322° |
| 2026-04-20 04:43 | 37.45231 | 126.43635 | 28 ft | 20 kts | 327° |
| 2026-04-20 04:43 | 37.45364 | 126.43520 | 28 ft | 25 kts | 324° |
| 2026-04-20 04:44 | 37.45512 | 126.43390 | 28 ft | 26 kts | 323° |
| 2026-04-20 04:44 | 37.45659 | 126.43256 | 28 ft | 25 kts | 325° |
| 2026-04-20 04:44 | 37.45804 | 126.43129 | 28 ft | 24 kts | 324° |
| 2026-04-20 04:44 | 37.45946 | 126.43007 | 28 ft | 24 kts | 324° |
| 2026-04-20 04:45 | 37.46082 | 126.42883 | 28 ft | 24 kts | 324° |
| 2026-04-20 04:45 | 37.46219 | 126.42760 | 28 ft | 23 kts | 324° |
| 2026-04-20 04:45 | 37.46351 | 126.42643 | 28 ft | 23 kts | 324° |
| 2026-04-20 04:45 | 37.46482 | 126.42527 | 28 ft | 22 kts | 324° |
| 2026-04-20 04:46 | 37.46613 | 126.42408 | 28 ft | 24 kts | 324° |
| 2026-04-20 04:46 | 37.46754 | 126.42284 | 28 ft | 24 kts | 324° |
| 2026-04-20 04:46 | 37.46892 | 126.42161 | 28 ft | 23 kts | 323° |
| 2026-04-20 04:46 | 37.47027 | 126.42040 | 28 ft | 23 kts | 322° |
| 2026-04-20 04:47 | 37.47158 | 126.41924 | 28 ft | 22 kts | 324° |
| 2026-04-20 04:47 | 37.47253 | 126.41840 | 28 ft | 9 kts | 324° |
| 2026-04-20 04:47 | 37.47275 | 126.41769 | 28 ft | 9 kts | 248° |
| 2026-04-20 04:47 | 37.47242 | 126.41711 | 28 ft | 7 kts | 232° |
| 2026-04-20 04:48 | 37.47213 | 126.41663 | 28 ft | 6 kts | 233° |
| 2026-04-20 04:48 | 37.47176 | 126.41649 | 28 ft | 5 kts | 148° |
| 2026-04-20 04:48 | 37.47169 | 126.41655 | 28 ft | 0 kts | 143° |
| 2026-04-20 04:48 | 37.47168 | 126.41657 | 28 ft | 1 kts | 143° |
| 2026-04-20 04:49 | 37.47034 | 126.41775 | 28 ft | 57 kts | 144° |
| 2026-04-20 04:49 | 37.46518 | 126.42234 | 28 ft | 120 kts | 144° |
| 2026-04-20 04:49 | 37.45683 | 126.42984 | 64 ft | 167 kts | 147° |
| 2026-04-20 04:49 | 37.44733 | 126.43784 | 609 ft | 171 kts | 153° |
| 2026-04-20 04:50 | 37.43679 | 126.44546 | 1176 ft | 178 kts | 152° |
| 2026-04-20 04:50 | 37.42592 | 126.45358 | 1694 ft | 185 kts | 152° |
| 2026-04-20 04:50 | 37.41468 | 126.46214 | 2035 ft | 192 kts | 151° |
| 2026-04-20 04:50 | 37.40321 | 126.47085 | 2482 ft | 192 kts | 153° |
| 2026-04-20 04:51 | 37.39198 | 126.47945 | 2913 ft | 192 kts | 152° |
| 2026-04-20 04:51 | 37.38008 | 126.48708 | 3348 ft | 192 kts | 167° |
| 2026-04-20 04:51 | 37.36670 | 126.49142 | 3682 ft | 202 kts | 174° |
| 2026-04-20 04:51 | 37.35261 | 126.49531 | 4016 ft | 216 kts | 172° |
| 2026-04-20 04:52 | 37.33756 | 126.50017 | 4411 ft | 228 kts | 171° |
| 2026-04-20 04:52 | 37.32185 | 126.50558 | 4743 ft | 244 kts | 170° |
| 2026-04-20 04:52 | 37.30498 | 126.51125 | 5153 ft | 257 kts | 173° |
| 2026-04-20 04:52 | 37.28722 | 126.51395 | 5553 ft | 261 kts | 191° |
| 2026-04-20 04:53 | 37.27013 | 126.50717 | 6076 ft | 254 kts | 218° |
| 2026-04-20 04:53 | 37.25712 | 126.49318 | 6771 ft | 249 kts | 229° |
| 2026-04-20 04:53 | 37.24476 | 126.47792 | 7464 ft | 251 kts | 227° |
| 2026-04-20 04:53 | 37.23193 | 126.46303 | 8200 ft | 252 kts | 226° |
| 2026-04-20 04:54 | 37.21893 | 126.44823 | 8838 ft | 257 kts | 226° |
| 2026-04-20 04:54 | 37.20581 | 126.43321 | 9501 ft | 260 kts | 226° |
| 2026-04-20 04:54 | 37.19227 | 126.41753 | 9916 ft | 266 kts | 227° |
| 2026-04-20 04:54 | 37.17885 | 126.40183 | 9941 ft | 263 kts | 227° |
| 2026-04-20 04:55 | 37.16550 | 126.38625 | 9929 ft | 263 kts | 227° |
| 2026-04-20 04:55 | 37.15215 | 126.37067 | 9949 ft | 262 kts | 228° |
| 2026-04-20 04:55 | 37.13889 | 126.35480 | 9943 ft | 266 kts | 227° |
| 2026-04-20 04:55 | 37.12557 | 126.33912 | 9948 ft | 262 kts | 226° |
| 2026-04-20 04:56 | 37.11284 | 126.32300 | 9938 ft | 260 kts | 235° |
| 2026-04-20 04:56 | 37.10474 | 126.30303 | 9982 ft | 261 kts | 259° |
| 2026-04-20 04:56 | 37.10367 | 126.27977 | 10328 ft | 276 kts | 270° |
| 2026-04-20 04:56 | 37.10414 | 126.25512 | 10642 ft | 293 kts | 269° |
| 2026-04-20 04:57 | 37.10405 | 126.22885 | 11009 ft | 307 kts | 268° |
| 2026-04-20 04:57 | 37.10365 | 126.20204 | 11602 ft | 313 kts | 268° |
| 2026-04-20 04:57 | 37.10328 | 126.17499 | 12361 ft | 314 kts | 269° |
| 2026-04-20 04:57 | 37.10304 | 126.14769 | 13098 ft | 317 kts | 269° |
| 2026-04-20 04:58 | 37.10292 | 126.12011 | 13802 ft | 319 kts | 269° |
| 2026-04-20 04:58 | 37.10484 | 126.09252 | 14537 ft | 323 kts | 279° |
| 2026-04-20 04:58 | 37.11167 | 126.06549 | 15234 ft | 329 kts | 288° |
| 2026-04-20 04:58 | 37.12086 | 126.03941 | 15916 ft | 333 kts | 290° |
| 2026-04-20 04:59 | 37.13079 | 126.01310 | 16570 ft | 336 kts | 290° |
| 2026-04-20 04:59 | 37.14061 | 125.98663 | 17247 ft | 338 kts | 289° |
| 2026-04-20 04:59 | 37.15028 | 125.95965 | 17908 ft | 340 kts | 289° |
| 2026-04-20 04:59 | 37.15971 | 125.93270 | 18588 ft | 340 kts | 288° |
| 2026-04-20 05:00 | 37.16899 | 125.90583 | 19294 ft | 339 kts | 288° |
| 2026-04-20 05:00 | 37.17825 | 125.87887 | 20011 ft | 338 kts | 288° |
| 2026-04-20 05:00 | 37.18760 | 125.85160 | 20678 ft | 338 kts | 287° |
| 2026-04-20 05:00 | 37.19679 | 125.82467 | 21270 ft | 339 kts | 287° |
| 2026-04-20 05:01 | 37.20606 | 125.79745 | 21864 ft | 339 kts | 287° |
| 2026-04-20 05:01 | 37.21222 | 125.77932 | 22180 ft | 342 kts | 287° |
| 2026-04-20 05:01 | 37.22465 | 125.74283 | 22917 ft | 343 kts | 286° |
| 2026-04-20 05:01 | 37.23390 | 125.71570 | 23485 ft | 343 kts | 286° |
| 2026-04-20 05:02 | 37.24324 | 125.68827 | 24014 ft | 344 kts | 286° |
| 2026-04-20 05:02 | 37.25266 | 125.66059 | 24489 ft | 346 kts | 286° |
| 2026-04-20 05:02 | 37.26209 | 125.63284 | 24920 ft | 350 kts | 286° |
| 2026-04-20 05:02 | 37.27169 | 125.60451 | 25359 ft | 353 kts | 286° |
| 2026-04-20 05:03 | 37.28122 | 125.57642 | 25801 ft | 356 kts | 286° |
| 2026-04-20 05:03 | 37.29095 | 125.54776 | 26229 ft | 359 kts | 285° |
| 2026-04-20 05:03 | 37.30067 | 125.51911 | 26737 ft | 359 kts | 286° |
| 2026-04-20 05:03 | 37.31052 | 125.49018 | 27191 ft | 359 kts | 286° |
| 2026-04-20 05:04 | 37.32035 | 125.46124 | 27510 ft | 362 kts | 286° |
| 2026-04-20 05:04 | 37.33018 | 125.43228 | 27833 ft | 364 kts | 285° |
| 2026-04-20 05:04 | 37.34011 | 125.40274 | 28146 ft | 367 kts | 285° |
| 2026-04-20 05:04 | 37.34985 | 125.37365 | 28659 ft | 364 kts | 285° |
| 2026-04-20 05:05 | 37.35981 | 125.34407 | 29020 ft | 365 kts | 284° |
| 2026-04-20 05:05 | 37.36977 | 125.31443 | 29216 ft | 371 kts | 285° |
| 2026-04-20 05:05 | 37.37973 | 125.28471 | 29579 ft | 371 kts | 284° |
| 2026-04-20 05:05 | 37.38854 | 125.25424 | 30027 ft | 365 kts | 281° |
| 2026-04-20 05:06 | 37.39426 | 125.22395 | 30092 ft | 359 kts | 273° |
| 2026-04-20 05:06 | 37.39648 | 125.16232 | 30087 ft | 349 kts | 267° |
| 2026-04-20 05:07 | 37.39486 | 125.10169 | 30095 ft | 348 kts | 266° |
| 2026-04-20 05:07 | 37.39372 | 125.04116 | 30094 ft | 348 kts | 266° |
| 2026-04-20 05:08 | 37.39274 | 124.98075 | 30093 ft | 347 kts | 267° |
| 2026-04-20 05:08 | 37.39175 | 124.92010 | 30105 ft | 347 kts | 266° |
| 2026-04-20 05:09 | 37.39033 | 124.85975 | 30103 ft | 346 kts | 266° |
| 2026-04-20 05:09 | 37.38903 | 124.79948 | 30110 ft | 346 kts | 266° |
| 2026-04-20 05:10 | 37.38763 | 124.73946 | 30116 ft | 344 kts | 266° |
| 2026-04-20 05:10 | 37.38645 | 124.67928 | 30119 ft | 345 kts | 266° |
| 2026-04-20 05:11 | 37.38506 | 124.61928 | 30104 ft | 344 kts | 266° |
| 2026-04-20 05:11 | 37.38348 | 124.55971 | 30113 ft | 345 kts | 266° |
| 2026-04-20 05:12 | 37.38234 | 124.49955 | 30114 ft | 343 kts | 267° |
| 2026-04-20 05:12 | 37.38007 | 124.43990 | 30113 ft | 342 kts | 262° |
| 2026-04-20 05:13 | 37.36386 | 124.38370 | 30125 ft | 347 kts | 245° |
| 2026-04-20 05:13 | 37.33844 | 124.33208 | 30129 ft | 349 kts | 243° |
| 2026-04-20 05:14 | 37.31231 | 124.28076 | 30122 ft | 347 kts | 242° |
| 2026-04-20 05:14 | 37.28634 | 124.22996 | 30123 ft | 350 kts | 243° |
| 2026-04-20 05:15 | 37.26054 | 124.17872 | 30120 ft | 347 kts | 243° |
| 2026-04-20 05:15 | 37.23460 | 124.12736 | 30125 ft | 347 kts | 243° |
| 2026-04-20 05:16 | 37.20793 | 124.07684 | 30127 ft | 348 kts | 243° |
| 2026-04-20 05:16 | 37.18069 | 124.02615 | 30128 ft | 352 kts | 243° |
| 2026-04-20 05:17 | 37.15368 | 123.97533 | 30134 ft | 351 kts | 243° |
| 2026-04-20 05:17 | 37.12743 | 123.92450 | 30133 ft | 348 kts | 243° |
| 2026-04-20 05:18 | 37.10122 | 123.87339 | 30133 ft | 352 kts | 244° |
| 2026-04-20 05:18 | 37.07486 | 123.82228 | 30136 ft | 350 kts | 244° |
| 2026-04-20 05:19 | 37.04846 | 123.77123 | 30135 ft | 351 kts | 243° |
| 2026-04-20 05:19 | 37.02197 | 123.72009 | 30137 ft | 351 kts | 243° |
| 2026-04-20 05:20 | 36.99529 | 123.66868 | 30145 ft | 350 kts | 243° |
| 2026-04-20 05:20 | 36.96886 | 123.61783 | 30148 ft | 353 kts | 244° |
| 2026-04-20 05:21 | 36.94212 | 123.56634 | 30150 ft | 352 kts | 243° |
| 2026-04-20 05:21 | 36.91532 | 123.51496 | 30152 ft | 354 kts | 243° |
| 2026-04-20 05:22 | 36.88851 | 123.46366 | 30150 ft | 351 kts | 244° |
| 2026-04-20 05:22 | 36.86347 | 123.41158 | 30152 ft | 349 kts | 250° |
| 2026-04-20 05:23 | 36.85010 | 123.35445 | 30156 ft | 344 kts | 262° |
| 2026-04-20 05:23 | 36.84845 | 123.29494 | 30157 ft | 346 kts | 273° |
| 2026-04-20 05:24 | 36.85857 | 123.23624 | 30163 ft | 350 kts | 281° |
| 2026-04-20 05:24 | 36.87307 | 123.17799 | 30167 ft | 350 kts | 282° |
| 2026-04-20 05:25 | 36.88760 | 123.12058 | 30169 ft | 347 kts | 281° |
| 2026-04-20 05:25 | 36.90183 | 123.06255 | 30170 ft | 349 kts | 281° |
| 2026-04-20 05:26 | 36.91584 | 123.00467 | 30171 ft | 347 kts | 282° |
| 2026-04-20 05:26 | 36.92966 | 122.94710 | 30172 ft | 348 kts | 282° |
| 2026-04-20 05:27 | 36.94342 | 122.88951 | 30171 ft | 346 kts | 282° |
| 2026-04-20 05:27 | 36.95708 | 122.83219 | 30170 ft | 345 kts | 281° |
| 2026-04-20 05:28 | 36.97068 | 122.77505 | 30170 ft | 343 kts | 282° |
| 2026-04-20 05:28 | 36.98434 | 122.71735 | 30170 ft | 346 kts | 281° |
| 2026-04-20 05:29 | 36.99793 | 122.65990 | 30169 ft | 340 kts | 281° |
| 2026-04-20 05:29 | 37.01146 | 122.60254 | 30169 ft | 344 kts | 281° |
| 2026-04-20 05:30 | 37.02490 | 122.54544 | 30169 ft | 342 kts | 282° |
| 2026-04-20 05:30 | 37.03828 | 122.48844 | 30167 ft | 342 kts | 282° |
| 2026-04-20 05:31 | 37.05162 | 122.43160 | 30166 ft | 339 kts | 282° |
| 2026-04-20 05:31 | 37.06508 | 122.37492 | 30165 ft | 339 kts | 283° |
| 2026-04-20 05:32 | 37.08725 | 122.32194 | 30164 ft | 359 kts | 299° |
| 2026-04-20 05:32 | 37.12466 | 122.27921 | 30167 ft | 370 kts | 310° |
| 2026-04-20 05:33 | 37.16514 | 122.23906 | 30164 ft | 361 kts | 304° |
| 2026-04-20 05:33 | 37.18089 | 122.21516 | 30166 ft | 349 kts | 294° |
| 2026-04-20 05:33 | 37.19218 | 122.18885 | 30167 ft | 339 kts | 287° |
| 2026-04-20 05:34 | 37.20797 | 122.13409 | 30165 ft | 335 kts | 283° |
| 2026-04-20 05:34 | 37.22940 | 122.05132 | 30170 ft | 335 kts | 284° |
| 2026-04-20 05:35 | 37.24377 | 121.99620 | 30165 ft | 333 kts | 283° |
| 2026-04-20 05:35 | 37.25795 | 121.94089 | 30163 ft | 332 kts | 283° |
| 2026-04-20 05:36 | 37.27214 | 121.88581 | 30155 ft | 332 kts | 284° |
| 2026-04-20 05:36 | 37.28626 | 121.83102 | 30154 ft | 333 kts | 283° |
| 2026-04-20 05:37 | 37.30048 | 121.77564 | 30154 ft | 332 kts | 283° |
| 2026-04-20 05:37 | 37.31462 | 121.72065 | 30150 ft | 334 kts | 283° |
| 2026-04-20 05:38 | 37.32861 | 121.66567 | 30161 ft | 332 kts | 283° |
| 2026-04-20 05:38 | 37.34272 | 121.61030 | 30169 ft | 333 kts | 283° |
| 2026-04-20 05:39 | 37.35674 | 121.55548 | 30174 ft | 331 kts | 283° |
| 2026-04-20 05:39 | 37.37064 | 121.50046 | 30178 ft | 330 kts | 283° |
| 2026-04-20 05:40 | 37.38451 | 121.44540 | 30180 ft | 331 kts | 284° |
| 2026-04-20 05:40 | 37.39835 | 121.39030 | 30180 ft | 330 kts | 283° |
| 2026-04-20 05:41 | 37.41226 | 121.33566 | 30187 ft | 330 kts | 283° |
| 2026-04-20 05:41 | 37.42610 | 121.28093 | 30187 ft | 329 kts | 282° |
| 2026-04-20 05:42 | 37.43990 | 121.22592 | 30184 ft | 329 kts | 283° |
| 2026-04-20 05:42 | 37.45372 | 121.17118 | 30182 ft | 329 kts | 283° |
| 2026-04-20 05:43 | 37.47023 | 121.11738 | 30181 ft | 329 kts | 287° |
| 2026-04-20 05:43 | 37.48771 | 121.06412 | 30183 ft | 331 kts | 286° |
| 2026-04-20 05:44 | 37.50512 | 121.01052 | 30187 ft | 328 kts | 286° |
| 2026-04-20 05:44 | 37.52201 | 120.95760 | 30190 ft | 328 kts | 286° |
| 2026-04-20 05:45 | 37.53899 | 120.90397 | 30187 ft | 328 kts | 285° |
| 2026-04-20 05:45 | 37.55590 | 120.85068 | 30186 ft | 328 kts | 286° |
| 2026-04-20 05:46 | 37.57274 | 120.79736 | 30189 ft | 328 kts | 286° |
| 2026-04-20 05:46 | 37.58953 | 120.74403 | 30186 ft | 326 kts | 287° |
| 2026-04-20 05:47 | 37.60685 | 120.69116 | 30186 ft | 327 kts | 287° |
| 2026-04-20 05:47 | 37.62432 | 120.63831 | 30181 ft | 327 kts | 287° |
| 2026-04-20 05:48 | 37.64190 | 120.58539 | 30183 ft | 327 kts | 286° |
| 2026-04-20 05:48 | 37.65282 | 120.53041 | 30188 ft | 321 kts | 273° |
| 2026-04-20 05:49 | 37.65064 | 120.47297 | 30186 ft | 325 kts | 267° |
| 2026-04-20 05:49 | 37.64639 | 120.41636 | 30182 ft | 323 kts | 267° |
| 2026-04-20 05:50 | 37.64216 | 120.35998 | 30195 ft | 323 kts | 268° |
| 2026-04-20 05:50 | 37.63820 | 120.30373 | 30191 ft | 323 kts | 267° |
| 2026-04-20 05:51 | 37.63406 | 120.24763 | 30196 ft | 324 kts | 268° |
| 2026-04-20 05:51 | 37.63012 | 120.19103 | 30196 ft | 322 kts | 267° |
| 2026-04-20 05:52 | 37.62617 | 120.13503 | 30199 ft | 324 kts | 267° |
| 2026-04-20 05:52 | 37.62202 | 120.07877 | 30198 ft | 322 kts | 268° |
| 2026-04-20 05:53 | 37.61800 | 120.02246 | 30198 ft | 323 kts | 267° |
| 2026-04-20 05:53 | 37.61378 | 119.96641 | 30200 ft | 324 kts | 268° |
| 2026-04-20 05:54 | 37.60960 | 119.90990 | 30199 ft | 324 kts | 268° |
| 2026-04-20 05:54 | 37.60548 | 119.85342 | 30200 ft | 325 kts | 268° |
| 2026-04-20 05:55 | 37.60136 | 119.79703 | 30200 ft | 323 kts | 268° |
| 2026-04-20 05:55 | 37.59688 | 119.74034 | 30197 ft | 324 kts | 267° |
| 2026-04-20 05:56 | 37.59249 | 119.68385 | 30194 ft | 326 kts | 268° |
| 2026-04-20 05:56 | 37.58850 | 119.62741 | 30194 ft | 325 kts | 268° |
| 2026-04-20 05:57 | 37.58490 | 119.57081 | 30193 ft | 325 kts | 268° |
| 2026-04-20 05:57 | 37.58114 | 119.51402 | 30199 ft | 325 kts | 268° |
| 2026-04-20 05:58 | 37.57719 | 119.45737 | 30191 ft | 326 kts | 268° |
| 2026-04-20 05:58 | 37.57325 | 119.40074 | 30192 ft | 326 kts | 268° |
| 2026-04-20 05:59 | 37.56910 | 119.34384 | 30201 ft | 326 kts | 268° |
| 2026-04-20 05:59 | 37.56502 | 119.28690 | 30189 ft | 326 kts | 268° |
| 2026-04-20 06:00 | 37.56102 | 119.23013 | 30199 ft | 327 kts | 267° |
| 2026-04-20 06:00 | 37.55695 | 119.17311 | 30194 ft | 328 kts | 267° |
| 2026-04-20 06:01 | 37.55279 | 119.11596 | 30188 ft | 327 kts | 268° |
| 2026-04-20 06:01 | 37.54879 | 119.05919 | 30191 ft | 327 kts | 267° |
| 2026-04-20 06:02 | 37.54440 | 119.00198 | 30190 ft | 328 kts | 267° |
| 2026-04-20 06:02 | 37.54023 | 118.94524 | 30191 ft | 326 kts | 268° |
| 2026-04-20 06:03 | 37.53598 | 118.88836 | 30194 ft | 327 kts | 268° |
| 2026-04-20 06:03 | 37.53159 | 118.83151 | 30210 ft | 326 kts | 268° |
| 2026-04-20 06:04 | 37.52725 | 118.77467 | 30211 ft | 327 kts | 266° |
| 2026-04-20 06:04 | 37.52412 | 118.74635 | 30073 ft | 330 kts | 266° |
| 2026-04-20 06:04 | 37.52050 | 118.71768 | 29814 ft | 330 kts | 265° |
| 2026-04-20 06:05 | 37.51671 | 118.68918 | 29579 ft | 329 kts | 264° |
| 2026-04-20 06:05 | 37.51291 | 118.66063 | 29331 ft | 330 kts | 265° |
| 2026-04-20 06:05 | 37.50922 | 118.63201 | 29089 ft | 332 kts | 265° |
| 2026-04-20 06:05 | 37.50558 | 118.60320 | 28846 ft | 335 kts | 265° |
| 2026-04-20 06:06 | 37.50194 | 118.57443 | 28603 ft | 338 kts | 265° |
| 2026-04-20 06:06 | 37.49820 | 118.54494 | 28358 ft | 339 kts | 266° |
| 2026-04-20 06:06 | 37.49449 | 118.51607 | 28118 ft | 340 kts | 265° |
| 2026-04-20 06:06 | 37.49068 | 118.48630 | 27861 ft | 342 kts | 265° |
| 2026-04-20 06:07 | 37.48698 | 118.45684 | 27618 ft | 345 kts | 266° |
| 2026-04-20 06:07 | 37.48325 | 118.42716 | 27377 ft | 345 kts | 265° |
| 2026-04-20 06:07 | 37.47956 | 118.39735 | 27131 ft | 350 kts | 266° |
| 2026-04-20 06:07 | 37.47572 | 118.36696 | 26890 ft | 352 kts | 266° |
| 2026-04-20 06:08 | 37.47186 | 118.33643 | 26640 ft | 354 kts | 265° |
| 2026-04-20 06:08 | 37.46808 | 118.30611 | 26383 ft | 355 kts | 265° |
| 2026-04-20 06:08 | 37.46413 | 118.27519 | 26139 ft | 356 kts | 265° |
| 2026-04-20 06:08 | 37.46016 | 118.24432 | 25895 ft | 360 kts | 265° |
| 2026-04-20 06:09 | 37.45622 | 118.21328 | 25637 ft | 359 kts | 265° |
| 2026-04-20 06:09 | 37.45241 | 118.18304 | 25391 ft | 348 kts | 266° |
| 2026-04-20 06:09 | 37.44868 | 118.15334 | 25139 ft | 335 kts | 265° |
| 2026-04-20 06:09 | 37.44514 | 118.12511 | 24873 ft | 324 kts | 266° |
| 2026-04-20 06:10 | 37.44170 | 118.09741 | 24629 ft | 318 kts | 266° |
| 2026-04-20 06:10 | 37.43834 | 118.06996 | 24394 ft | 321 kts | 267° |
| 2026-04-20 06:10 | 37.43490 | 118.04218 | 24152 ft | 321 kts | 266° |
| 2026-04-20 06:10 | 37.43146 | 118.01461 | 23895 ft | 320 kts | 267° |
| 2026-04-20 06:11 | 37.42802 | 117.98708 | 23648 ft | 319 kts | 267° |
| 2026-04-20 06:11 | 37.42456 | 117.95964 | 23414 ft | 318 kts | 266° |
| 2026-04-20 06:11 | 37.42112 | 117.93230 | 23165 ft | 317 kts | 266° |
| 2026-04-20 06:11 | 37.41770 | 117.90484 | 22930 ft | 319 kts | 266° |
| 2026-04-20 06:12 | 37.41422 | 117.87727 | 22698 ft | 321 kts | 266° |
| 2026-04-20 06:12 | 37.41071 | 117.84971 | 22457 ft | 320 kts | 266° |
| 2026-04-20 06:12 | 37.40723 | 117.82218 | 22219 ft | 320 kts | 266° |
| 2026-04-20 06:12 | 37.40365 | 117.79440 | 21989 ft | 321 kts | 266° |
| 2026-04-20 06:13 | 37.40013 | 117.76685 | 21747 ft | 321 kts | 266° |
| 2026-04-20 06:13 | 37.39666 | 117.73943 | 21513 ft | 322 kts | 266° |
| 2026-04-20 06:13 | 37.39308 | 117.71172 | 21265 ft | 322 kts | 266° |
| 2026-04-20 06:13 | 37.38950 | 117.68362 | 21033 ft | 324 kts | 267° |
| 2026-04-20 06:14 | 37.38593 | 117.65563 | 20807 ft | 324 kts | 266° |
| 2026-04-20 06:14 | 37.38237 | 117.62788 | 20552 ft | 322 kts | 266° |
| 2026-04-20 06:14 | 37.37883 | 117.60038 | 20310 ft | 323 kts | 266° |
| 2026-04-20 06:14 | 37.37522 | 117.57231 | 20069 ft | 324 kts | 266° |
| 2026-04-20 06:15 | 37.37164 | 117.54452 | 19830 ft | 325 kts | 266° |
| 2026-04-20 06:15 | 37.36801 | 117.51698 | 19586 ft | 316 kts | 265° |
| 2026-04-20 06:15 | 37.36272 | 117.49052 | 19346 ft | 309 kts | 258° |
| 2026-04-20 06:15 | 37.35421 | 117.46586 | 19101 ft | 306 kts | 249° |
| 2026-04-20 06:16 | 37.34296 | 117.44357 | 18856 ft | 303 kts | 243° |
| 2026-04-20 06:16 | 37.32961 | 117.42313 | 18613 ft | 302 kts | 236° |
| 2026-04-20 06:16 | 37.31385 | 117.40552 | 18375 ft | 308 kts | 226° |
| 2026-04-20 06:16 | 37.29538 | 117.39093 | 18131 ft | 319 kts | 218° |
| 2026-04-20 06:17 | 37.27508 | 117.37933 | 17859 ft | 327 kts | 210° |
| 2026-04-20 06:17 | 37.25263 | 117.37161 | 17421 ft | 337 kts | 199° |
| 2026-04-20 06:17 | 37.22913 | 117.36828 | 16917 ft | 343 kts | 191° |
| 2026-04-20 06:17 | 37.20528 | 117.36880 | 16394 ft | 350 kts | 182° |
| 2026-04-20 06:18 | 37.18068 | 117.37256 | 15847 ft | 353 kts | 180° |
| 2026-04-20 06:18 | 37.15640 | 117.37440 | 15294 ft | 349 kts | 187° |
| 2026-04-20 06:18 | 37.13237 | 117.37269 | 14760 ft | 347 kts | 192° |
| 2026-04-20 06:18 | 37.10817 | 117.37007 | 14226 ft | 348 kts | 190° |
| 2026-04-20 06:19 | 37.08421 | 117.36874 | 13700 ft | 349 kts | 187° |
| 2026-04-20 06:19 | 37.05990 | 117.36837 | 13174 ft | 350 kts | 185° |
| 2026-04-20 06:19 | 37.03571 | 117.36846 | 12822 ft | 344 kts | 184° |
| 2026-04-20 06:19 | 37.01207 | 117.36868 | 12628 ft | 333 kts | 184° |
| 2026-04-20 06:20 | 36.98915 | 117.36887 | 12505 ft | 321 kts | 184° |
| 2026-04-20 06:20 | 36.96732 | 117.36897 | 12382 ft | 310 kts | 185° |
| 2026-04-20 06:20 | 36.94593 | 117.36897 | 12195 ft | 305 kts | 185° |
| 2026-04-20 06:20 | 36.92491 | 117.36889 | 11846 ft | 305 kts | 185° |
| 2026-04-20 06:21 | 36.90358 | 117.36879 | 11474 ft | 304 kts | 184° |
| 2026-04-20 06:21 | 36.88240 | 117.36874 | 11227 ft | 299 kts | 184° |
| 2026-04-20 06:21 | 36.86173 | 117.36870 | 11114 ft | 301 kts | 184° |
| 2026-04-20 06:21 | 36.84081 | 117.36864 | 10803 ft | 303 kts | 183° |
| 2026-04-20 06:22 | 36.81963 | 117.36861 | 10447 ft | 301 kts | 183° |
| 2026-04-20 06:22 | 36.79883 | 117.36858 | 10099 ft | 299 kts | 183° |
| 2026-04-20 06:22 | 36.77813 | 117.36852 | 9749 ft | 297 kts | 182° |
| 2026-04-20 06:22 | 36.75752 | 117.36843 | 9400 ft | 295 kts | 183° |
| 2026-04-20 06:23 | 36.73694 | 117.36835 | 9055 ft | 294 kts | 182° |
| 2026-04-20 06:23 | 36.71640 | 117.36829 | 8704 ft | 292 kts | 182° |
| 2026-04-20 06:23 | 36.69623 | 117.36822 | 8362 ft | 291 kts | 182° |
| 2026-04-20 06:23 | 36.67598 | 117.36816 | 8021 ft | 289 kts | 182° |
| 2026-04-20 06:24 | 36.65565 | 117.36809 | 7673 ft | 288 kts | 182° |
| 2026-04-20 06:24 | 36.63576 | 117.36803 | 7325 ft | 287 kts | 181° |
| 2026-04-20 06:24 | 36.61580 | 117.36803 | 6989 ft | 286 kts | 181° |
| 2026-04-20 06:24 | 36.59596 | 117.36799 | 6835 ft | 279 kts | 182° |
| 2026-04-20 06:25 | 36.57704 | 117.36561 | 6617 ft | 272 kts | 196° |
| 2026-04-20 06:25 | 36.56065 | 117.35546 | 6371 ft | 262 kts | 227° |
| 2026-04-20 06:25 | 36.55115 | 117.33718 | 6136 ft | 249 kts | 256° |
| 2026-04-20 06:25 | 36.54853 | 117.31619 | 5890 ft | 240 kts | 272° |
| 2026-04-20 06:26 | 36.54845 | 117.29572 | 5640 ft | 237 kts | 274° |
| 2026-04-20 06:26 | 36.54849 | 117.27542 | 5391 ft | 235 kts | 273° |
| 2026-04-20 06:26 | 36.54876 | 117.25517 | 5141 ft | 231 kts | 278° |
| 2026-04-20 06:26 | 36.55273 | 117.23650 | 4885 ft | 223 kts | 304° |
| 2026-04-20 06:27 | 36.56354 | 117.22328 | 4640 ft | 216 kts | 333° |
| 2026-04-20 06:27 | 36.57729 | 117.21690 | 4403 ft | 212 kts | 347° |
| 2026-04-20 06:27 | 36.59184 | 117.21494 | 4167 ft | 208 kts | 359° |
| 2026-04-20 06:27 | 36.60621 | 117.21545 | 3921 ft | 204 kts | 1° |
| 2026-04-20 06:28 | 36.62040 | 117.21591 | 3667 ft | 202 kts | 0° |
| 2026-04-20 06:28 | 36.63444 | 117.21600 | 3417 ft | 199 kts | 359° |
| 2026-04-20 06:28 | 36.64791 | 117.21584 | 3287 ft | 188 kts | 359° |
| 2026-04-20 06:28 | 36.66061 | 117.21591 | 3286 ft | 176 kts | 359° |
| 2026-04-20 06:29 | 36.67281 | 117.21598 | 3291 ft | 175 kts | 359° |
| 2026-04-20 06:29 | 36.68491 | 117.21594 | 3149 ft | 172 kts | 359° |
| 2026-04-20 06:29 | 36.69677 | 117.21593 | 2942 ft | 170 kts | 359° |
| 2026-04-20 06:29 | 36.70861 | 117.21596 | 2689 ft | 166 kts | 359° |
| 2026-04-20 06:30 | 36.71979 | 117.21595 | 2486 ft | 155 kts | 358° |
| 2026-04-20 06:30 | 36.73021 | 117.21597 | 2249 ft | 146 kts | 358° |
| 2026-04-20 06:30 | 36.74019 | 117.21606 | 2126 ft | 144 kts | 358° |
| 2026-04-20 06:30 | 36.75045 | 117.21602 | 1873 ft | 146 kts | 358° |
| 2026-04-20 06:31 | 36.76064 | 117.21601 | 1632 ft | 144 kts | 359° |
| 2026-04-20 06:31 | 36.77071 | 117.21595 | 1425 ft | 143 kts | 358° |
| 2026-04-20 06:31 | 36.78072 | 117.21626 | 1203 ft | 143 kts | 0° |
| 2026-04-20 06:31 | 36.79081 | 117.21644 | 1072 ft | 146 kts | 359° |
| 2026-04-20 06:32 | 36.80085 | 117.21641 | 879 ft | 142 kts | 358° |
| 2026-04-20 06:32 | 36.81095 | 117.21627 | 683 ft | 144 kts | 358° |
| 2026-04-20 06:32 | 36.82076 | 117.21629 | 497 ft | 141 kts | 358° |
| 2026-04-20 06:32 | 36.83075 | 117.21601 | 316 ft | 143 kts | 359° |
| 2026-04-20 06:33 | 36.84058 | 117.21609 | 137 ft | 141 kts | 358° |
| 2026-04-20 06:33 | 36.84987 | 117.21600 | 83 ft | 107 kts | 0° |
| 2026-04-20 06:33 | 36.85470 | 117.21600 | 83 ft | 37 kts | 359° |
| 2026-04-20 06:33 | 36.85664 | 117.21599 | 83 ft | 25 kts | 0° |
| 2026-04-20 06:34 | 36.85803 | 117.21595 | 83 ft | 18 kts | 352° |
| 2026-04-20 06:34 | 36.85924 | 117.21551 | 83 ft | 17 kts | 336° |
| 2026-04-20 06:34 | 36.86126 | 117.21411 | 83 ft | 10 kts | 332° |
| 2026-04-20 06:35 | 36.86190 | 117.21377 | 83 ft | 9 kts | 338° |
| 2026-04-20 06:35 | 36.86221 | 117.21313 | 83 ft | 9 kts | 266° |
| 2026-04-20 06:35 | 36.86176 | 117.21273 | 83 ft | 8 kts | 179° |
| 2026-04-20 06:35 | 36.86115 | 117.21273 | 83 ft | 9 kts | 180° |
| 2026-04-20 06:36 | 36.86048 | 117.21274 | 83 ft | 10 kts | 179° |
| 2026-04-20 06:36 | 36.85972 | 117.21274 | 83 ft | 11 kts | 180° |
| 2026-04-20 06:36 | 36.85883 | 117.21274 | 83 ft | 15 kts | 180° |
| 2026-04-20 06:36 | 36.85776 | 117.21274 | 83 ft | 13 kts | 179° |
| 2026-04-20 06:37 | 36.85707 | 117.21262 | 83 ft | 8 kts | 215° |
| 2026-04-20 06:37 | 36.85674 | 117.21209 | 83 ft | 7 kts | 234° |
| 2026-04-20 06:37 | 36.85644 | 117.21156 | 83 ft | 7 kts | 234° |
| 2026-04-20 06:37 | 36.85627 | 117.21127 | 83 ft | 1 kts | 234° |
| 2026-04-20 06:38 | 36.85623 | 117.21120 | 83 ft | 0 kts | 235° |
| 2026-04-20 06:38 | 36.85621 | 117.21116 | 83 ft | 0 kts | 235° |
| 2026-04-20 06:44 | 36.85620 | 117.21116 | 83 ft | 0 kts | 235° |